Sunday, May 27, 2018, 9:52 AM EDT
Back to Local

KVAY, Mt Holly South Jersey Rgnl

Location: Medford, NJ, United States Lat: 39.933
Local Time: 9:52 AM EDT (13:52 GMT) Lon: -74.833
Time Zone: US/Eastern Elev: 52 ft

Show me the last for .
Show Decoded

2018-05-27 09:24 METAR KVAY 271324Z AUTO VRB04KT 10SM SCT008 OVC025 18/17 A2996 RMK AO2 RAE03
                 P0000 T01780172 =
2018-05-27 09:05 METAR KVAY 271305Z AUTO 05005KT 10SM BKN009 OVC015 18/17 A2995 RMK AO2 RAE03 CIG
                 007V013 P0000 T01780172 =
2018-05-27 08:54 METAR KVAY 271254Z AUTO VRB04KT 10SM -RA SCT007 OVC013 18/17 A2995 RMK AO2
                 RAE10B53 SLP142 P0000 T01780172 =
2018-05-27 08:02 METAR KVAY 271202Z AUTO VRB05KT 10SM -RA BKN008 OVC012 21/20 A2992 RMK AO2 LTG
                 DSNT NW CIG 004V012 P0000 T02060200 =
2018-05-27 07:54 METAR KVAY 271154Z AUTO VRB06KT 7SM -RA SCT005 BKN011 OVC038 22/21 A2991 RMK AO2
                 LTG DSNT N RAB07E19B46 SLP129 P0001 60003 70005 T02170211 10233 20217 53017 =
2018-05-27 07:46 METAR KVAY 271146Z AUTO 07005KT 7SM -RA BKN013 BKN020 OVC060 22/22 A2991 RMK AO2
                 LTG DSNT N RAB07E19B46 P0000 T02220222 =
2018-05-27 06:54 METAR KVAY 271054Z AUTO 15003KT 10SM SCT025 BKN037 OVC060 22/22 A2990 RMK AO2
                 LTG DSNT N SLP125 T02220222 =
2018-05-27 06:44 METAR KVAY 271044Z AUTO 00000KT 10SM SCT025 BKN035 OVC070 22/22 A2991 RMK AO2
                 LTG DSNT N T02220222 =
2018-05-27 06:33 METAR KVAY 271033Z AUTO 10004KT 10SM BKN025 BKN033 OVC070 22/22 A2991 RMK AO2
                 LTG DSNT NW-NE T02220217 =
2018-05-27 05:54 METAR KVAY 270954Z AUTO 00000KT 10SM FEW028 22/22 A2986 RMK AO2 LTG DSNT NW-NE
                 SLP112 T02170217 =
2018-05-27 04:54 METAR KVAY 270854Z AUTO 00000KT 10SM CLR 22/22 A2986 RMK AO2 LTG DSNT N RAB06E25
                 SLP112 P0002 60002 T02220222 55001 =
2018-05-27 03:54 METAR KVAY 270754Z AUTO 00000KT 10SM BKN046 BKN055 OVC110 23/23 A2986 RMK AO2
                 LTG DSNT NE SLP111 T02280228 =
2018-05-27 02:54 METAR KVAY 270654Z AUTO 00000KT 10SM SCT110 23/23 A2987 RMK AO2 SLP113 T02280228
                 =
2018-05-27 01:54 METAR KVAY 270554Z AUTO 00000KT 10SM FEW110 23/23 A2987 RMK AO2 LTG DSNT E RAE25
                 SLP112 P0002 60002 T02330228 10272 20233 50001 =
2018-05-27 00:54 METAR KVAY 270454Z AUTO 00000KT 8SM -RA FEW065 FEW090 BKN110 24/22 A2988 RMK AO2
                 RAB42 SLP117 P0000 T02390222 403220189 =
2018-05-26 23:54 METAR KVAY 270354Z AUTO 00000KT 10SM CLR 25/22 A2987 RMK AO2 SLP114 T02500217 =
2018-05-26 22:54 METAR KVAY 270254Z AUTO 00000KT 10SM FEW070 25/21 A2986 RMK AO2 SLP111 T02500211
                 51016 =
2018-05-26 21:54 METAR KVAY 270154Z AUTO 22003KT 10SM BKN070 OVC080 26/21 A2986 RMK AO2 TSE05
                 SLP109 T02610206 =
2018-05-26 21:11 METAR KVAY 270111Z AUTO 27007KT 10SM SCT090 27/19 A2985 RMK AO2 LTG DSNT NE
                 TSE05 T02720194 =
2018-05-26 20:54 METAR KVAY 270054Z AUTO VRB03KT 10SM TS FEW070 SCT090 26/20 A2984 RMK AO2 TSB50
                 SLP105 T02610200 =
2018-05-26 20:42 METAR KVAY 270042Z AUTO 00000KT 10SM VCTS BKN070 BKN090 26/20 A2984 RMK AO2
                 T02610200 =
2018-05-26 19:54 METAR KVAY 262354Z AUTO 23003KT 10SM FEW070 27/20 A2981 RMK AO2 LTG DSNT SE
                 SLP095 T02670200 10322 20267 53009 =
2018-05-26 18:54 METAR KVAY 262254Z AUTO 24009G17KT 10SM SCT085 29/21 A2980 RMK AO2 LTG DSNT SW
                 AND W SLP091 T02940211 =
2018-05-26 18:47 METAR KVAY 262247Z AUTO 23005KT 10SM BKN085 30/21 A2980 RMK AO2 LTG DSNT SW
                 T03000211 =
2018-05-26 18:32 METAR KVAY 262232Z AUTO 22003KT 10SM VCTS BKN085 BKN100 29/22 A2979 RMK AO2 LTG
                 DSNT SW AND W T02940217 =
2018-05-26 17:54 METAR KVAY 262154Z AUTO 22003KT 10SM CLR 30/20 A2979 RMK AO2 LTG DSNT SW AND W
                 SLP086 T03000200 =
2018-05-26 16:54 METAR KVAY 262054Z AUTO VRB03KT 10SM CLR 32/21 A2979 RMK AO2 LTG DSNT W SLP086
                 T03170206 56007 =
2018-05-26 15:54 METAR KVAY 261954Z AUTO 27006KT 10SM FEW050 SCT085 BKN110 31/20 A2979 RMK AO2
                 SLP086 T03110200 =
2018-05-26 14:54 METAR KVAY 261854Z AUTO 21005KT 10SM FEW049 SCT065 31/21 A2979 RMK AO2 SLP087
                 T03110206 =
2018-05-26 13:54 METAR KVAY 261754Z AUTO 24006KT 10SM FEW049 32/21 A2981 RMK AO2 SLP093 T03170206
                 10317 20239 56015 =
2018-05-26 12:54 METAR KVAY 261654Z AUTO VRB04KT 10SM SCT080 31/22 A2982 RMK AO2 SLP098 T03060217
                 =
2018-05-26 11:54 METAR KVAY 261554Z AUTO VRB05KT 10SM SCT075 29/21 A2984 RMK AO2 SLP102 T02890211
                 =
2018-05-26 10:54 METAR KVAY 261454Z AUTO VRB03KT 10SM FEW085 SCT110 27/21 A2985 RMK AO2 SLP108
                 T02670206 58001 =
2018-05-26 09:54 METAR KVAY 261354Z AUTO 24008KT 10SM CLR 27/21 A2986 RMK AO2 SLP110 T02670206 =

Support USWX by starting your Amazon purchase here.